Vronskiy — C4AY2 — position and weather

sailwx.info

Track history (hours):
 
Tides and Currents Weather Stations Pressure Air Temp Water Temp Dewpoint Dewpoint Depression Visibility Wind Speed Wind Dir Waves Ship Positions

Vronskiy

Last reported at 2016-Dec-04 13:33 UTC. Time now 2016-Dec-05 04:24 UTC.
Position N 36°43' W 002°29'.

Length 131 m; draft 5.1 m.

Type: Passenger vessel. MMSI: 210030000.

Date/timePositionNaut miles runAvg speedWind from/ knotsBaromVisibWave heightAir tempDewpointWater temp
2016-Dec-04 13:33N 36°43' W 002°29'7 7.3
2016-Dec-04 12:32N 36°50' W 002°28'0 0.0
2016-Dec-04 11:32N 36°50' W 002°28'0 0.0
2016-Dec-04 10:29N 36°50' W 002°28'0 0.0
2016-Dec-04 09:32N 36°50' W 002°28'0 0.0
2016-Dec-04 08:32N 36°50' W 002°28'0 0.0
2016-Dec-04 07:32N 36°50' W 002°28'0 0.0
2016-Dec-04 06:32N 36°50' W 002°28'5 4.7
2016-Dec-04 05:33N 36°45' W 002°28'2 0.1
2016-Dec-03 13:33N 36°43' W 002°29'7 6.6
2016-Dec-03 12:33N 36°50' W 002°28'0 0.0
2016-Dec-03 11:33N 36°50' W 002°28'0 0.0
2016-Dec-03 10:33N 36°50' W 002°28'0 0.0
2016-Dec-03 09:33N 36°50' W 002°28'0 0.0
2016-Dec-03 08:33N 36°50' W 002°28'0 0.0
2016-Dec-03 07:33N 36°50' W 002°28'0 0.0
2016-Dec-03 06:33N 36°50' W 002°28'3 2.9
2016-Dec-03 05:34N 36°47' W 002°28'5 0.3
2016-Dec-02 13:33N 36°42' W 002°30'8 7.4
2016-Dec-02 12:30N 36°50' W 002°28'0 0.0
2016-Dec-02 11:33N 36°50' W 002°28'0 0.0
2016-Dec-02 10:33N 36°50' W 002°28'0 0.0
2016-Dec-02 09:33N 36°50' W 002°28'0 0.0
2016-Dec-02 08:30N 36°50' W 002°28'0 0.0
2016-Dec-02 07:30N 36°50' W 002°28'0 0.0
2016-Dec-02 06:30N 36°50' W 002°28'3 3.7
2016-Dec-02 05:33N 36°47' W 002°28'3 0.2
2016-Dec-01 13:33N 36°44' W 002°29'6 6.0
2016-Dec-01 12:32N 36°50' W 002°28'0 0.0
2016-Dec-01 11:32N 36°50' W 002°28'0 0.0
2016-Dec-01 10:32N 36°50' W 002°28'0 0.0
2016-Dec-01 09:32N 36°50' W 002°28'3 0.1
2016-Nov-29 23:33N 36°47' W 002°28'3 2.5
2016-Nov-29 22:32N 36°50' W 002°28'0 0.0
2016-Nov-29 21:32N 36°50' W 002°28'0 0.0
2016-Nov-29 20:32N 36°50' W 002°28'0 0.0
2016-Nov-29 19:32N 36°50' W 002°28'0 0.0
2016-Nov-29 18:32N 36°50' W 002°28'0 0.0
2016-Nov-29 17:32N 36°50' W 002°28'0 0.0
2016-Nov-29 16:32N 36°50' W 002°28'0 0.0
2016-Nov-29 15:32N 36°50' W 002°28'0 0.0
2016-Nov-29 14:32N 36°50' W 002°28'0 0.0
2016-Nov-29 13:32N 36°50' W 002°28'0 0.0
2016-Nov-29 12:32N 36°50' W 002°28'0 0.0
2016-Nov-29 11:32N 36°50' W 002°28'0 0.0
2016-Nov-29 10:32N 36°50' W 002°28'0 0.0
2016-Nov-29 09:32N 36°50' W 002°28'0 0.0
2016-Nov-29 08:29N 36°50' W 002°28'0 0.0
2016-Nov-29 07:29N 36°50' W 002°28'0 0.0
2016-Nov-29 06:32N 36°50' W 002°28'3 3.5
2016-Nov-29 05:33N 36°47' W 002°28'9 0.6
2016-Nov-28 14:03N 36°38' W 002°32'917.7
2016-Nov-28 13:34N 36°46' W 002°29'4 3.8
2016-Nov-28 12:33N 36°50' W 002°28'0 0.0
2016-Nov-28 11:33N 36°50' W 002°28'0 0.0
2016-Nov-28 10:33N 36°50' W 002°28'0 0.0
2016-Nov-28 09:33N 36°50' W 002°28'0 0.0
2016-Nov-28 08:33N 36°50' W 002°28'0 0.0
2016-Nov-28 07:33N 36°50' W 002°28'0 0.0
2016-Nov-28 06:33N 36°50' W 002°28'6 6.5
2016-Nov-28 05:34N 36°44' W 002°28'  
2016-Nov-25 13:10N 36°50' W 002°28'0 0.2
2016-Nov-25 12:32N 36°50' W 002°28'0 0.0
2016-Nov-25 11:32N 36°50' W 002°28'0 0.0
2016-Nov-25 10:32N 36°50' W 002°28'0 0.0
2016-Nov-25 09:32N 36°50' W 002°28'0 0.0
2016-Nov-25 08:32N 36°50' W 002°28'0 0.0
2016-Nov-25 07:32N 36°50' W 002°28'0 0.0
2016-Nov-25 06:32N 36°50' W 002°28'4 4.4
2016-Nov-25 05:33N 36°46' W 002°28'3 0.2
2016-Nov-24 13:33N 36°43' W 002°30'  
Track history (hours):
 
Tides and Currents Weather Stations Pressure Air Temp Water Temp Dewpoint Dewpoint Depression Visibility Wind Speed Wind Dir Waves Ship Positions

Vronskiy

Last reported at 2016-Dec-04 13:33 UTC. Time now 2016-Dec-05 04:24 UTC.
Position N 36°43' W 002°29'.

Length 131 m; draft 5.1 m.

Type: Passenger vessel. MMSI: 210030000.

Date/timePositionNaut miles runAvg speedWind from/ knotsBaromVisibWave heightAir tempDewpointWater temp
2016-Dec-04 13:33N 36°43' W 002°29'7 7.3
2016-Dec-04 12:32N 36°50' W 002°28'0 0.0
2016-Dec-04 11:32N 36°50' W 002°28'0 0.0
2016-Dec-04 10:29N 36°50' W 002°28'0 0.0
2016-Dec-04 09:32N 36°50' W 002°28'0 0.0
2016-Dec-04 08:32N 36°50' W 002°28'0 0.0
2016-Dec-04 07:32N 36°50' W 002°28'0 0.0
2016-Dec-04 06:32N 36°50' W 002°28'5 4.7
2016-Dec-04 05:33N 36°45' W 002°28'2 0.1
2016-Dec-03 13:33N 36°43' W 002°29'7 6.6
2016-Dec-03 12:33N 36°50' W 002°28'0 0.0
2016-Dec-03 11:33N 36°50' W 002°28'0 0.0
2016-Dec-03 10:33N 36°50' W 002°28'0 0.0
2016-Dec-03 09:33N 36°50' W 002°28'0 0.0
2016-Dec-03 08:33N 36°50' W 002°28'0 0.0
2016-Dec-03 07:33N 36°50' W 002°28'0 0.0
2016-Dec-03 06:33N 36°50' W 002°28'3 2.9
2016-Dec-03 05:34N 36°47' W 002°28'5 0.3
2016-Dec-02 13:33N 36°42' W 002°30'8 7.4
2016-Dec-02 12:30N 36°50' W 002°28'0 0.0
2016-Dec-02 11:33N 36°50' W 002°28'0 0.0
2016-Dec-02 10:33N 36°50' W 002°28'0 0.0
2016-Dec-02 09:33N 36°50' W 002°28'0 0.0
2016-Dec-02 08:30N 36°50' W 002°28'0 0.0
2016-Dec-02 07:30N 36°50' W 002°28'0 0.0
2016-Dec-02 06:30N 36°50' W 002°28'3 3.7
2016-Dec-02 05:33N 36°47' W 002°28'3 0.2
2016-Dec-01 13:33N 36°44' W 002°29'6 6.0
2016-Dec-01 12:32N 36°50' W 002°28'0 0.0
2016-Dec-01 11:32N 36°50' W 002°28'0 0.0
2016-Dec-01 10:32N 36°50' W 002°28'0 0.0
2016-Dec-01 09:32N 36°50' W 002°28'3 0.1
2016-Nov-29 23:33N 36°47' W 002°28'3 2.5
2016-Nov-29 22:32N 36°50' W 002°28'0 0.0
2016-Nov-29 21:32N 36°50' W 002°28'0 0.0
2016-Nov-29 20:32N 36°50' W 002°28'0 0.0
2016-Nov-29 19:32N 36°50' W 002°28'0 0.0
2016-Nov-29 18:32N 36°50' W 002°28'0 0.0
2016-Nov-29 17:32N 36°50' W 002°28'0 0.0
2016-Nov-29 16:32N 36°50' W 002°28'0 0.0
2016-Nov-29 15:32N 36°50' W 002°28'0 0.0
2016-Nov-29 14:32N 36°50' W 002°28'0 0.0
2016-Nov-29 13:32N 36°50' W 002°28'0 0.0
2016-Nov-29 12:32N 36°50' W 002°28'0 0.0
2016-Nov-29 11:32N 36°50' W 002°28'0 0.0
2016-Nov-29 10:32N 36°50' W 002°28'0 0.0
2016-Nov-29 09:32N 36°50' W 002°28'0 0.0
2016-Nov-29 08:29N 36°50' W 002°28'0 0.0
2016-Nov-29 07:29N 36°50' W 002°28'0 0.0
2016-Nov-29 06:32N 36°50' W 002°28'3 3.5
2016-Nov-29 05:33N 36°47' W 002°28'9 0.6
2016-Nov-28 14:03N 36°38' W 002°32'917.7
2016-Nov-28 13:34N 36°46' W 002°29'4 3.8
2016-Nov-28 12:33N 36°50' W 002°28'0 0.0
2016-Nov-28 11:33N 36°50' W 002°28'0 0.0
2016-Nov-28 10:33N 36°50' W 002°28'0 0.0
2016-Nov-28 09:33N 36°50' W 002°28'0 0.0
2016-Nov-28 08:33N 36°50' W 002°28'0 0.0
2016-Nov-28 07:33N 36°50' W 002°28'0 0.0
2016-Nov-28 06:33N 36°50' W 002°28'6 6.5
2016-Nov-28 05:34N 36°44' W 002°28'  
2016-Nov-25 13:10N 36°50' W 002°28'0 0.2
2016-Nov-25 12:32N 36°50' W 002°28'0 0.0
2016-Nov-25 11:32N 36°50' W 002°28'0 0.0
2016-Nov-25 10:32N 36°50' W 002°28'0 0.0
2016-Nov-25 09:32N 36°50' W 002°28'0 0.0
2016-Nov-25 08:32N 36°50' W 002°28'0 0.0
2016-Nov-25 07:32N 36°50' W 002°28'0 0.0
2016-Nov-25 06:32N 36°50' W 002°28'4 4.4
2016-Nov-25 05:33N 36°46' W 002°28'3 0.2
2016-Nov-24 13:33N 36°43' W 002°30'  

Dump ship's entire track history